createdAt,value
2022-10-22T00:00:52.814Z,100943.41
2022-10-22T00:03:19.262Z,100944.28
2022-10-22T00:05:45.643Z,100935.97
2022-10-22T00:08:12.073Z,100945.59
2022-10-22T00:10:38.606Z,100943.69
2022-10-22T00:13:05.126Z,100945.00
2022-10-22T00:15:31.609Z,100946.47
2022-10-22T00:17:57.982Z,100950.34
2022-10-22T00:20:24.563Z,100943.53
2022-10-22T00:25:18.372Z,100948.13
2022-10-22T00:27:44.766Z,100956.13
2022-10-22T00:30:11.804Z,100958.06
2022-10-22T00:32:38.469Z,100952.72
2022-10-22T00:35:05.551Z,100960.72
2022-10-22T00:37:32.081Z,100954.94
2022-10-22T00:39:58.506Z,100956.72
2022-10-22T00:42:26.641Z,100963.84
2022-10-22T00:45:11.376Z,100965.91
2022-10-22T00:48:02.830Z,100967.47
2022-10-22T00:50:33.032Z,100965.69
2022-10-22T00:53:00.646Z,100964.97
2022-10-22T00:55:28.890Z,100961.88
2022-10-22T00:57:57.481Z,100963.78
2022-10-22T01:00:24.622Z,100970.31
2022-10-22T01:02:52.379Z,100965.72
2022-10-22T01:05:19.544Z,100964.34
2022-10-22T01:07:51.830Z,100966.59
2022-10-22T01:10:38.907Z,100965.41
2022-10-22T01:13:15.271Z,100970.59
2022-10-22T01:15:50.778Z,100973.56
2022-10-22T01:18:24.543Z,100963.94
2022-10-22T01:21:08.047Z,100966.91
2022-10-22T01:24:04.743Z,100967.94
2022-10-22T01:26:34.026Z,100961.13
2022-10-22T01:29:15.711Z,100958.44
2022-10-22T01:31:48.515Z,100967.19
2022-10-22T01:34:18.187Z,100969.88
2022-10-22T01:36:46.701Z,100967.94
2022-10-22T01:39:15.331Z,100965.28
2022-10-22T01:41:45.370Z,100967.63
2022-10-22T01:44:26.733Z,100969.13
2022-10-22T01:47:18.565Z,100971.78
2022-10-22T01:50:20.739Z,100972.25
2022-10-22T01:53:05.965Z,100971.94
2022-10-22T01:55:49.568Z,100970.16
2022-10-22T01:58:45.136Z,100972.38
2022-10-22T02:01:30.069Z,100962.59
2022-10-22T02:04:03.032Z,100963.47
2022-10-22T02:06:32.521Z,100967.34
2022-10-22T02:09:00.737Z,100949.09
2022-10-22T02:11:27.433Z,100959.03
2022-10-22T02:13:58.569Z,100960.22
2022-10-22T02:16:32.192Z,100959.50
2022-10-22T02:19:01.982Z,100951.19
2022-10-22T02:21:28.569Z,100954.75
2022-10-22T02:23:55.073Z,100944.22
2022-10-22T02:26:27.988Z,100942.72
2022-10-22T02:29:18.962Z,100942.00
2022-10-22T02:31:48.643Z,100944.06
2022-10-22T02:34:21.505Z,100942.56
2022-10-22T02:36:50.466Z,100950.28
2022-10-22T02:39:19.828Z,100956.06
2022-10-22T02:41:46.423Z,100942.84
2022-10-22T02:44:13.141Z,100951.59
2022-10-22T02:46:40.501Z,100955.75
2022-10-22T02:49:06.923Z,100953.53
2022-10-22T02:51:33.828Z,100956.50
2022-10-22T02:54:00.265Z,100960.94
2022-10-22T02:56:26.657Z,100957.84
2022-10-22T02:58:53.075Z,100961.69
2022-10-22T03:01:19.598Z,100965.09
2022-10-22T03:03:46.064Z,100962.13
2022-10-22T03:06:13.010Z,100973.84
2022-10-22T03:08:40.174Z,100968.06
2022-10-22T03:11:06.725Z,100968.38
2022-10-22T03:13:33.193Z,100969.41
2022-10-22T03:15:59.660Z,100963.78
2022-10-22T03:18:26.099Z,100964.50
2022-10-22T03:21:09.693Z,100969.41
2022-10-22T03:23:37.317Z,100971.78
2022-10-22T03:26:04.573Z,100966.88
2022-10-22T03:28:31.044Z,100972.22
2022-10-22T03:30:57.455Z,100970.28
2022-10-22T03:33:23.866Z,100969.25
2022-10-22T03:35:50.350Z,100982.13
2022-10-22T03:38:16.943Z,100966.13
2022-10-22T03:40:44.618Z,100971.47
2022-10-22T03:43:11.386Z,100967.31
2022-10-22T03:48:05.745Z,100972.66
2022-10-22T03:50:32.137Z,100978.44
2022-10-22T03:52:59.551Z,100987.63
2022-10-22T03:55:26.165Z,100978.13
2022-10-22T03:57:52.781Z,100983.59
2022-10-22T04:00:19.219Z,100987.44
2022-10-22T04:02:45.620Z,100987.44
2022-10-22T04:05:12.013Z,100987.88
2022-10-22T04:07:38.720Z,100992.44
2022-10-22T04:10:05.786Z,100995.56
2022-10-22T04:12:32.185Z,100986.81
2022-10-22T04:14:58.607Z,100984.16
2022-10-22T04:17:25.047Z,100986.50
2022-10-22T04:19:51.480Z,100987.25
2022-10-22T04:22:17.877Z,100989.91
2022-10-22T04:24:44.314Z,100989.63
2022-10-22T04:27:10.796Z,100992.72
2022-10-22T04:29:37.185Z,100998.06
2022-10-22T04:32:03.727Z,101003.09
2022-10-22T04:34:30.250Z,100998.94
2022-10-22T04:36:56.727Z,101000.84
2022-10-22T04:39:23.155Z,101001.59
2022-10-22T04:41:49.672Z,101008.13
2022-10-22T04:44:18.234Z,100996.72
2022-10-22T04:46:45.517Z,101004.72
2022-10-22T04:49:11.947Z,100999.38
2022-10-22T04:51:38.434Z,101006.63
2022-10-22T04:54:05.334Z,101000.13
2022-10-22T04:56:32.517Z,101010.03
2022-10-22T04:59:05.024Z,101011.53
2022-10-22T05:01:36.943Z,101016.88
2022-10-22T05:04:08.032Z,101014.94
2022-10-22T05:06:36.689Z,101014.19
2022-10-22T05:09:07.038Z,101017.28
2022-10-22T05:11:38.223Z,101016.13
2022-10-22T05:14:07.681Z,101021.16
2022-10-22T05:16:35.068Z,101014.31
2022-10-22T05:19:02.518Z,101018.19
2022-10-22T05:21:29.023Z,101021.31
2022-10-22T05:23:59.766Z,101023.22
2022-10-22T05:26:27.452Z,101018.03
2022-10-22T05:28:53.862Z,101018.47
2022-10-22T05:31:20.743Z,101027.66
2022-10-22T05:33:47.466Z,101026.28
2022-10-22T05:36:17.863Z,101021.41
2022-10-22T05:38:44.816Z,101024.06
2022-10-22T05:41:15.851Z,101029.41
2022-10-22T05:43:42.741Z,101027.91
2022-10-22T05:46:17.630Z,101031.00
2022-10-22T05:48:56.981Z,101030.69
2022-10-22T05:51:24.486Z,101036.47
2022-10-22T05:53:53.519Z,101041.50
2022-10-22T05:56:20.961Z,101042.66
2022-10-22T05:58:47.774Z,101039.41
2022-10-22T06:01:18.163Z,101038.22
2022-10-22T06:03:45.561Z,101046.53
2022-10-22T06:06:22.162Z,101047.13
2022-10-22T06:08:50.321Z,101056.63
2022-10-22T06:11:18.986Z,101056.19
2022-10-22T06:13:46.081Z,101062.69
2022-10-22T06:16:12.756Z,101058.97
2022-10-22T06:18:39.350Z,101063.56
2022-10-22T06:21:07.595Z,101068.59
2022-10-22T06:23:34.855Z,101077.31
2022-10-22T06:26:01.571Z,101075.53
2022-10-22T06:28:28.642Z,101076.28
2022-10-22T06:30:57.737Z,101079.38
2022-10-22T06:33:24.538Z,101084.28
2022-10-22T06:35:50.935Z,101093.00
2022-10-22T06:38:17.400Z,101097.59
2022-10-22T06:40:44.887Z,101103.03
2022-10-22T06:43:14.836Z,101098.91
2022-10-22T06:45:41.322Z,101105.72
2022-10-22T06:48:07.792Z,101111.78
2022-10-22T06:50:35.200Z,101115.19
2022-10-22T06:53:01.665Z,101118.59
2022-10-22T06:55:28.457Z,101129.56
2022-10-22T06:57:55.556Z,101127.97
2022-10-22T07:00:22.552Z,101132.44
2022-10-22T07:02:56.424Z,101133.06
2022-10-22T07:05:25.535Z,101131.44
2022-10-22T07:07:51.964Z,101133.22
2022-10-22T07:10:18.498Z,101130.44
2022-10-22T07:12:44.911Z,101145.44
2022-10-22T07:15:11.604Z,101137.59
2022-10-22T07:17:38.033Z,101145.78
2022-10-22T07:20:05.085Z,101147.88
2022-10-22T07:22:31.507Z,101146.59
2022-10-22T07:24:57.876Z,101153.00
2022-10-22T07:27:24.577Z,101149.75
2022-10-22T07:29:50.948Z,101156.00
2022-10-22T07:32:19.645Z,101151.72
2022-10-22T07:34:49.409Z,101162.09
2022-10-22T07:37:15.799Z,101170.16
2022-10-22T07:39:42.200Z,101166.03
2022-10-22T07:42:08.592Z,101176.44
2022-10-22T07:44:35.060Z,101174.69
2022-10-22T07:47:01.503Z,101177.06
2022-10-22T07:49:27.931Z,101182.75
2022-10-22T07:51:54.319Z,101186.66
2022-10-22T07:54:20.729Z,101190.22
2022-10-22T07:56:47.103Z,101191.53
2022-10-22T07:59:13.624Z,101197.19
2022-10-22T08:01:40.310Z,101197.34
2022-10-22T08:04:08.286Z,101196.00
2022-10-22T08:06:35.995Z,101198.84
2022-10-22T08:09:02.809Z,101200.19
2022-10-22T08:11:29.287Z,101205.38
2022-10-22T08:13:55.685Z,101199.16
2022-10-22T08:16:22.067Z,101206.91
2022-10-22T08:18:48.447Z,101205.41
2022-10-22T08:21:14.823Z,101220.09
2022-10-22T08:23:41.304Z,101221.44
2022-10-22T08:26:08.058Z,101222.94
2022-10-22T08:28:36.988Z,101227.38
2022-10-22T08:31:05.711Z,101223.81
2022-10-22T08:33:32.148Z,101230.66
2022-10-22T08:35:58.580Z,101228.59
2022-10-22T08:38:24.997Z,101229.63
2022-10-22T08:40:56.660Z,101235.13
2022-10-22T08:43:37.291Z,101237.94
2022-10-22T08:46:34.007Z,101231.50
2022-10-22T08:49:02.960Z,101241.91
2022-10-22T08:51:36.860Z,101250.09
2022-10-22T08:54:30.573Z,101252.59
2022-10-22T08:57:20.154Z,101251.41
2022-10-22T08:59:53.037Z,101263.16
2022-10-22T09:02:48.180Z,101264.66
2022-10-22T09:05:38.872Z,101269.09
2022-10-22T09:08:09.465Z,101273.56
2022-10-22T09:10:38.749Z,101271.75
2022-10-22T09:13:05.205Z,101277.69
2022-10-22T09:15:31.636Z,101280.78
2022-10-22T09:18:30.568Z,101282.25
2022-10-22T09:21:02.835Z,101278.06
2022-10-22T09:23:35.900Z,101293.06
2022-10-22T09:26:02.913Z,101293.94
2022-10-22T09:28:29.337Z,101290.78
2022-10-22T09:30:55.838Z,101298.34
2022-10-22T09:33:28.137Z,101298.44
2022-10-22T09:35:58.452Z,101300.53
2022-10-22T09:38:28.042Z,101312.25
2022-10-22T09:40:56.512Z,101300.63
2022-10-22T09:43:23.460Z,101305.69
2022-10-22T09:46:05.872Z,101309.00
2022-10-22T09:48:39.153Z,101307.78
2022-10-22T09:51:05.730Z,101315.88
2022-10-22T09:53:38.842Z,101314.44
2022-10-22T09:56:25.816Z,101321.88
2022-10-22T09:58:52.831Z,101320.50
2022-10-22T10:01:25.169Z,101324.22
2022-10-22T10:03:51.988Z,101328.09
2022-10-22T10:06:23.478Z,101341.34
2022-10-22T10:08:50.312Z,101326.88
2022-10-22T10:11:29.068Z,101340.41
2022-10-22T10:14:12.858Z,101345.72
2022-10-22T10:16:54.432Z,101346.59
2022-10-22T10:19:40.810Z,101339.22
2022-10-22T10:22:29.869Z,101346.34
2022-10-22T10:25:10.090Z,101353.41
2022-10-22T10:28:01.271Z,101361.47
2022-10-22T10:30:27.813Z,101366.09
2022-10-22T10:33:10.558Z,101362.47
2022-10-22T10:35:48.714Z,101363.97
2022-10-22T10:38:37.073Z,101366.47
2022-10-22T10:41:23.568Z,101372.84
2022-10-22T10:44:15.899Z,101373.13
2022-10-22T10:46:52.979Z,101368.31
2022-10-22T10:49:25.305Z,101382.28
2022-10-22T10:52:16.291Z,101377.75
2022-10-22T10:54:51.014Z,101379.31
2022-10-22T10:57:34.254Z,101382.47
2022-10-22T11:00:11.781Z,101375.41
2022-10-22T11:03:03.144Z,101386.16
2022-10-22T11:05:54.080Z,101387.47
2022-10-22T11:09:08.004Z,101385.06
2022-10-22T11:11:42.012Z,101388.50
2022-10-22T11:14:23.442Z,101384.59
2022-10-22T11:17:16.877Z,101388.31
2022-10-22T11:20:00.210Z,101399.44
2022-10-22T11:22:50.509Z,101393.94
2022-10-22T11:25:43.297Z,101397.72
2022-10-22T11:28:17.105Z,101411.19
2022-10-22T11:30:49.383Z,101407.91
2022-10-22T11:33:22.020Z,101408.00
2022-10-22T11:35:49.456Z,101406.25
2022-10-22T11:38:22.208Z,101399.84
2022-10-22T11:40:51.385Z,101408.66
2022-10-22T11:43:31.728Z,101399.00
2022-10-22T11:46:04.253Z,101405.19
2022-10-22T11:48:37.499Z,101405.31
2022-10-22T11:51:24.529Z,101412.56
2022-10-22T11:53:57.031Z,101408.28
2022-10-22T11:56:27.901Z,101407.94
2022-10-22T11:58:55.509Z,101417.47
2022-10-22T12:01:25.486Z,101408.81
2022-10-22T12:03:57.907Z,101409.59
2022-10-22T12:06:28.774Z,101412.28
2022-10-22T12:09:04.630Z,101416.81
2022-10-22T12:11:50.091Z,101418.94
2022-10-22T12:14:22.922Z,101413.66
2022-10-22T12:17:09.889Z,101415.06
2022-10-22T12:19:39.676Z,101415.44
2022-10-22T12:22:05.997Z,101420.31
2022-10-22T12:24:37.105Z,101424.94
2022-10-22T12:27:04.132Z,101427.53
2022-10-22T12:29:32.773Z,101428.00
2022-10-22T12:32:04.108Z,101424.09
2022-10-22T12:34:30.488Z,101424.28
2022-10-22T12:36:56.935Z,101418.44
2022-10-22T12:39:27.120Z,101423.31
2022-10-22T12:41:54.460Z,101423.78
2022-10-22T12:44:20.880Z,101422.81
2022-10-22T12:46:51.772Z,101418.97
2022-10-22T12:49:24.806Z,101421.38
2022-10-22T12:51:51.237Z,101424.16
2022-10-22T12:54:30.463Z,101420.91
2022-10-22T12:56:58.503Z,101418.78
2022-10-22T12:59:35.388Z,101413.66
2022-10-22T13:02:06.784Z,101417.09
2022-10-22T13:04:37.273Z,101420.25
2022-10-22T13:07:05.568Z,101410.97
2022-10-22T13:09:47.451Z,101414.94
2022-10-22T13:12:16.644Z,101412.59
2022-10-22T13:14:44.907Z,101418.94
2022-10-22T13:17:20.189Z,101419.19
2022-10-22T13:19:54.544Z,101416.66
2022-10-22T13:22:29.365Z,101415.56
2022-10-22T13:27:24.497Z,101423.59
2022-10-22T13:29:51.020Z,101420.63
2022-10-22T13:32:27.740Z,101417.84
2022-10-22T13:34:56.082Z,101425.31
2022-10-22T13:37:22.628Z,101421.53
2022-10-22T13:39:49.048Z,101421.00
2022-10-22T13:42:15.501Z,101429.25
2022-10-22T13:44:41.930Z,101436.25
2022-10-22T13:47:40.624Z,101433.22
2022-10-22T13:50:14.840Z,101438.13
2022-10-22T13:52:45.076Z,101433.13
2022-10-22T13:55:22.147Z,101442.50
2022-10-22T13:57:49.599Z,101443.34
2022-10-22T14:00:21.280Z,101445.25
2022-10-22T14:02:51.989Z,101439.88
2022-10-22T14:05:19.058Z,101437.91
2022-10-22T14:07:46.092Z,101440.59
2022-10-22T14:10:21.655Z,101440.19
2022-10-22T14:12:52.386Z,101436.66
2022-10-22T14:15:26.359Z,101441.03
2022-10-22T14:17:56.701Z,101443.25
2022-10-22T14:20:27.692Z,101446.97
2022-10-22T14:22:54.641Z,101445.00
2022-10-22T14:25:23.754Z,101440.28
2022-10-22T14:27:50.653Z,101440.00
2022-10-22T14:30:25.170Z,101443.34
2022-10-22T14:32:52.156Z,101449.38
2022-10-22T14:35:22.084Z,101442.75
2022-10-22T14:37:48.821Z,101453.69
2022-10-22T14:40:17.923Z,101454.31
2022-10-22T14:42:48.720Z,101459.13
2022-10-22T14:45:24.515Z,101457.91
2022-10-22T14:47:54.769Z,101469.44
2022-10-22T14:50:21.803Z,101477.31
2022-10-22T14:52:48.485Z,101471.19
2022-10-22T14:55:16.820Z,101483.63
2022-10-22T14:57:44.042Z,101474.34
2022-10-22T15:00:14.608Z,101477.19
2022-10-22T15:02:41.340Z,101476.44
2022-10-22T15:05:08.557Z,101485.25
2022-10-22T15:07:35.857Z,101479.59
2022-10-22T15:10:02.496Z,101484.88
2022-10-22T15:12:28.929Z,101479.69
2022-10-22T15:14:55.334Z,101474.47
2022-10-22T15:17:21.815Z,101475.41
2022-10-22T15:19:48.354Z,101481.25
2022-10-22T15:22:15.832Z,101482.91
2022-10-22T15:24:45.194Z,101492.44
2022-10-22T15:27:14.943Z,101490.22
2022-10-22T15:29:42.412Z,101490.44
2022-10-22T15:32:10.395Z,101494.50
2022-10-22T15:34:38.638Z,101487.34
2022-10-22T15:37:08.426Z,101498.56
2022-10-22T15:39:35.611Z,101497.25
2022-10-22T15:42:02.068Z,101494.91
2022-10-22T15:44:31.969Z,101498.50
2022-10-22T15:46:58.880Z,101500.34
2022-10-22T15:49:27.286Z,101508.28
2022-10-22T15:51:54.832Z,101507.47
2022-10-22T15:54:24.467Z,101511.06
2022-10-22T15:56:51.129Z,101502.59
2022-10-22T15:59:17.816Z,101502.47
2022-10-22T16:01:44.490Z,101498.94
2022-10-22T16:04:11.159Z,101497.78
2022-10-22T16:06:44.017Z,101500.06
2022-10-22T16:09:16.030Z,101493.97
2022-10-22T16:11:42.896Z,101494.91
2022-10-22T16:14:12.051Z,101504.03
2022-10-22T16:16:42.560Z,101500.81
2022-10-22T16:19:13.745Z,101505.03
2022-10-22T16:21:40.375Z,101507.13
2022-10-22T16:24:08.364Z,101498.19
2022-10-22T16:26:35.529Z,101501.47
2022-10-22T16:29:02.503Z,101504.47
2022-10-22T16:31:28.911Z,101511.34
2022-10-22T16:33:55.432Z,101506.28
2022-10-22T16:36:22.297Z,101509.44
2022-10-22T16:38:48.903Z,101512.41
2022-10-22T16:41:20.803Z,101520.75
2022-10-22T16:43:50.509Z,101518.19
2022-10-22T16:46:19.392Z,101521.91
2022-10-22T16:48:47.237Z,101517.44
2022-10-22T16:51:16.076Z,101523.38
2022-10-22T16:53:42.977Z,101512.06
2022-10-22T16:56:11.400Z,101519.50
2022-10-22T16:58:39.061Z,101515.63
2022-10-22T17:01:07.955Z,101520.09
2022-10-22T17:03:35.342Z,101513.38
2022-10-22T17:06:03.952Z,101522.00
2022-10-22T17:08:34.918Z,101516.00
2022-10-22T17:11:11.234Z,101514.66
2022-10-22T17:13:39.618Z,101524.00
2022-10-22T17:16:08.976Z,101520.44
2022-10-22T17:18:36.920Z,101527.84
2022-10-22T17:21:04.874Z,101526.63
2022-10-22T17:23:31.769Z,101535.78
2022-10-22T17:26:06.150Z,101527.47
2022-10-22T17:28:33.374Z,101537.53
2022-10-22T17:31:21.642Z,101545.97
2022-10-22T17:33:49.957Z,101548.44
2022-10-22T17:36:18.008Z,101548.13
2022-10-22T17:38:51.799Z,101549.75
2022-10-22T17:41:21.365Z,101554.59
2022-10-22T17:43:48.258Z,101550.44
2022-10-22T17:46:26.844Z,101557.06
2022-10-22T17:49:02.264Z,101546.63
2022-10-22T17:51:30.930Z,101553.28
2022-10-22T17:53:57.473Z,101551.50
2022-10-22T17:56:29.809Z,101557.72
2022-10-22T17:58:56.547Z,101550.56
2022-10-22T18:01:29.142Z,101544.59
2022-10-22T18:03:59.499Z,101546.63
2022-10-22T18:06:26.303Z,101550.91
2022-10-22T18:11:22.093Z,101558.72
2022-10-22T18:13:50.403Z,101560.78
2022-10-22T18:16:17.733Z,101565.91
2022-10-22T18:18:55.612Z,101567.84
2022-10-22T18:21:24.535Z,101564.69
2022-10-22T18:23:50.979Z,101572.47
2022-10-22T18:26:20.253Z,101560.00
2022-10-22T18:28:49.308Z,101567.81
2022-10-22T18:31:21.017Z,101564.81
2022-10-22T18:33:48.436Z,101564.38
2022-10-22T18:36:20.501Z,101565.56
2022-10-22T18:38:58.203Z,101570.59
2022-10-22T18:41:25.643Z,101571.97
2022-10-22T18:43:54.203Z,101564.41
2022-10-22T18:46:21.062Z,101564.81
2022-10-22T18:48:48.019Z,101568.88
2022-10-22T18:51:14.793Z,101580.13
2022-10-22T18:53:42.395Z,101576.81
2022-10-22T18:56:12.996Z,101572.13
2022-10-22T18:58:40.722Z,101569.25
2022-10-22T19:01:13.419Z,101579.16
2022-10-22T19:03:41.065Z,101577.66
2022-10-22T19:06:07.927Z,101569.44
2022-10-22T19:08:36.908Z,101563.06
2022-10-22T19:11:09.980Z,101554.72
2022-10-22T19:13:36.959Z,101564.31
2022-10-22T19:16:06.019Z,101556.31
2022-10-22T19:18:33.449Z,101562.16
2022-10-22T19:21:00.970Z,101551.38
2022-10-22T19:23:30.130Z,101545.09
2022-10-22T19:26:16.505Z,101545.84
2022-10-22T19:28:43.535Z,101555.03
2022-10-22T19:31:12.774Z,101541.78
2022-10-22T19:33:40.094Z,101541.91
2022-10-22T19:36:09.183Z,101553.84
2022-10-22T19:38:39.354Z,101553.09
2022-10-22T19:41:07.260Z,101545.19
2022-10-22T19:43:34.110Z,101548.28
2022-10-22T19:46:00.604Z,101545.28
2022-10-22T19:48:28.618Z,101545.81
2022-10-22T19:51:00.043Z,101545.16
2022-10-22T19:53:26.478Z,101546.34
2022-10-22T19:55:52.865Z,101543.03
2022-10-22T19:58:19.366Z,101548.78
2022-10-22T20:00:45.845Z,101552.63
2022-10-22T20:03:14.572Z,101553.16
2022-10-22T20:05:42.606Z,101553.16
2022-10-22T20:08:10.864Z,101551.44
2022-10-22T20:10:37.636Z,101553.78
2022-10-22T20:13:04.281Z,101554.63
2022-10-22T20:15:34.392Z,101551.53
2022-10-22T20:18:00.866Z,101553.44
2022-10-22T20:20:27.277Z,101552.28
2022-10-22T20:22:54.324Z,101548.88
2022-10-22T20:25:20.771Z,101562.19
2022-10-22T20:27:47.216Z,101555.38
2022-10-22T20:30:14.188Z,101558.44
2022-10-22T20:32:41.095Z,101560.03
2022-10-22T20:35:08.003Z,101554.81
2022-10-22T20:37:34.481Z,101556.38
2022-10-22T20:40:00.848Z,101563.31
2022-10-22T20:42:27.308Z,101552.75
2022-10-22T20:44:53.667Z,101550.50
2022-10-22T20:47:20.062Z,101557.41
2022-10-22T20:49:46.431Z,101562.41
2022-10-22T20:52:12.808Z,101564.44
2022-10-22T20:54:42.390Z,101559.97
2022-10-22T20:57:08.853Z,101561.88
2022-10-22T20:59:35.852Z,101564.97
2022-10-22T21:02:02.591Z,101568.03
2022-10-22T21:04:29.692Z,101560.88
2022-10-22T21:06:57.506Z,101562.06
2022-10-22T21:09:25.066Z,101565.88
2022-10-22T21:14:23.060Z,101559.47
2022-10-22T21:16:51.088Z,101566.72
2022-10-22T21:19:22.466Z,101571.31
2022-10-22T21:21:49.418Z,101564.91
2022-10-22T21:24:15.885Z,101566.91
2022-10-22T21:26:43.663Z,101568.06
2022-10-22T21:29:13.535Z,101567.31
2022-10-22T21:31:40.379Z,101574.22
2022-10-22T21:34:07.084Z,101572.06
2022-10-22T21:36:33.514Z,101566.81
2022-10-22T21:39:01.132Z,101563.41
2022-10-22T21:41:27.510Z,101563.31
2022-10-22T21:43:53.901Z,101565.06
2022-10-22T21:46:22.835Z,101564.56
2022-10-22T21:48:54.162Z,101564.56
2022-10-22T21:51:21.391Z,101567.22
2022-10-22T21:53:48.022Z,101572.56
2022-10-22T21:56:28.010Z,101577.53
2022-10-22T21:58:54.523Z,101574.88
2022-10-22T22:01:21.943Z,101573.38
2022-10-22T22:03:50.402Z,101569.56
2022-10-22T22:06:21.427Z,101576.03
2022-10-22T22:08:49.415Z,101570.38
2022-10-22T22:11:18.493Z,101578.03
2022-10-22T22:13:45.145Z,101567.41
2022-10-22T22:16:14.229Z,101566.66
2022-10-22T22:18:41.559Z,101561.31
2022-10-22T22:21:10.891Z,101567.47
2022-10-22T22:23:39.508Z,101559.16
2022-10-22T22:26:06.438Z,101548.94
2022-10-22T22:28:34.048Z,101548.94
2022-10-22T22:31:00.677Z,101551.59
2022-10-22T22:33:27.643Z,101550.84
2022-10-22T22:35:58.606Z,101539.88
2022-10-22T22:38:25.163Z,101541.78
2022-10-22T22:40:51.556Z,101542.97
2022-10-22T22:43:17.969Z,101537.66
2022-10-22T22:45:44.378Z,101536.56
2022-10-22T22:48:10.780Z,101535.84
2022-10-22T22:50:37.168Z,101541.16
2022-10-22T22:53:03.572Z,101538.50
2022-10-22T22:55:31.874Z,101535.84
2022-10-22T22:57:58.649Z,101532.00
2022-10-22T23:00:25.069Z,101527.84
2022-10-22T23:02:55.312Z,101531.25
2022-10-22T23:05:21.768Z,101533.16
2022-10-22T23:07:48.942Z,101528.25
2022-10-22T23:10:15.424Z,101528.25
2022-10-22T23:12:41.978Z,101526.75
2022-10-22T23:15:08.875Z,101523.03
2022-10-22T23:20:03.664Z,101519.63
2022-10-22T23:22:30.095Z,101520.78
2022-10-22T23:24:56.498Z,101518.88
2022-10-22T23:27:22.899Z,101513.22
2022-10-22T23:29:49.287Z,101513.63
2022-10-22T23:32:15.687Z,101512.13
2022-10-22T23:34:42.228Z,101520.53
2022-10-22T23:37:11.873Z,101517.53
2022-10-22T23:39:38.300Z,101522.53
2022-10-22T23:42:04.886Z,101521.03
2022-10-22T23:44:31.280Z,101522.91
2022-10-22T23:46:57.698Z,101516.09
2022-10-22T23:49:24.107Z,101501.31
2022-10-22T23:51:50.537Z,101498.31
2022-10-22T23:54:18.487Z,101489.56
2022-10-22T23:56:45.665Z,101496.47
